Time;durP1;ratioP1;P1;durP2;ratioP2;P2;SDS_P1;SDS_P2;PMS_P1;PMS_P2;Temp;Humidity;BMP_temperature;BMP_pressure;BME280_temperature;BME280_humidity;BME280_pressure;Samples;Min_cycle;Max_cycle;Signal;HPM_P1;HPM_P2
2023/09/30 00:02:12;;;;;;;15.20;4.75;;;15.10;99.90;;;15.89;66.77;101474.97;4850866;29;20422;-86
2023/09/30 00:04:41;;;;;;;13.32;4.47;;;15.10;99.90;;;15.88;66.82;101468.75;4882701;29;20041;-86
2023/09/30 00:07:09;;;;;;;14.43;4.65;;;15.10;99.90;;;15.89;66.90;101469.59;4881808;29;20151;-86
2023/09/30 00:09:37;;;;;;;13.20;4.82;;;15.10;99.90;;;15.88;66.76;101471.44;4896518;29;20057;-86
2023/09/30 00:12:05;;;;;;;17.58;5.22;;;15.10;99.90;;;15.87;66.99;101472.50;4882572;29;20081;-86
2023/09/30 00:14:32;;;;;;;16.45;4.70;;;15.10;99.90;;;15.86;67.03;101483.47;4882645;29;20044;-86
2023/09/30 00:17:00;;;;;;;15.07;4.40;;;15.10;99.90;;;15.83;66.88;101484.75;4882123;29;20053;-86
2023/09/30 00:19:28;;;;;;;11.48;4.63;;;15.10;99.90;;;15.82;66.90;101491.19;4882193;29;20056;-86
2023/09/30 00:21:57;;;;;;;12.38;4.65;;;15.10;99.90;;;15.82;67.07;101488.47;4848711;29;20122;-86
2023/09/30 00:24:25;;;;;;;10.55;4.13;;;15.10;99.90;;;15.80;66.86;101487.88;4850848;29;20056;-86
2023/09/30 00:26:52;;;;;;;14.02;4.90;;;15.10;99.90;;;15.76;66.78;101472.38;4863557;29;20501;-86
2023/09/30 00:29:20;;;;;;;12.95;4.38;;;15.00;99.90;;;15.75;66.91;101468.88;4858810;29;20053;-86
2023/09/30 00:31:49;;;;;;;12.40;4.97;;;14.90;99.90;;;15.73;66.90;101473.66;4834708;29;20500;-86
2023/09/30 00:34:16;;;;;;;13.70;3.95;;;15.00;99.90;;;15.72;67.03;101469.34;4864569;29;20045;-86
2023/09/30 00:36:44;;;;;;;14.75;4.53;;;15.00;99.90;;;15.72;66.95;101474.72;4857520;29;20557;-86
2023/09/30 00:39:14;;;;;;;13.00;4.43;;;15.00;99.90;;;15.71;67.17;101473.03;4834527;29;20136;-86
2023/09/30 00:41:42;;;;;;;11.70;4.07;;;15.00;99.90;;;15.72;67.13;101480.09;4865527;29;20125;-86
2023/09/30 00:44:09;;;;;;;11.57;4.30;;;15.00;99.90;;;15.70;67.19;101482.16;4865321;29;20033;-86
2023/09/30 00:46:41;;;;;;;16.50;4.75;;;15.00;99.90;;;15.70;67.22;101480.28;4865491;29;20473;-86
2023/09/30 00:49:10;;;;;;;12.25;4.45;;;14.90;99.90;;;15.67;67.25;101474.56;4866386;29;20041;-86
2023/09/30 00:51:38;;;;;;;13.48;4.05;;;14.90;99.90;;;15.67;67.34;101478.06;4850464;29;20123;-86
2023/09/30 00:54:06;;;;;;;11.85;4.50;;;14.90;99.90;;;15.70;67.60;101474.91;4864640;29;20040;-86
2023/09/30 00:56:41;;;;;;;14.38;4.25;;;15.00;99.90;;;15.72;67.41;101480.09;4875428;29;20489;-86
2023/09/30 00:59:08;;;;;;;16.02;5.10;;;15.00;99.90;;;15.69;67.57;101470.59;4865081;29;20131;-86
2023/09/30 01:01:36;;;;;;;13.13;4.15;;;15.00;99.90;;;15.66;67.38;101478.25;4865158;29;20108;-86
2023/09/30 01:04:05;;;;;;;16.52;4.53;;;14.90;99.90;;;15.64;67.30;101485.75;4864896;29;20045;-86
2023/09/30 01:06:33;;;;;;;13.50;5.15;;;14.90;99.90;;;15.61;67.14;101492.34;4834287;29;20069;-86
2023/09/30 01:09:01;;;;;;;13.23;4.40;;;14.90;99.90;;;15.61;67.37;101510.34;4880826;29;20124;-86
2023/09/30 01:11:29;;;;;;;11.57;4.65;;;14.90;99.90;;;15.59;67.33;101521.31;4857538;29;20057;-86
2023/09/30 01:13:58;;;;;;;11.45;4.75;;;14.90;99.90;;;15.58;67.39;101500.03;4865501;29;20105;-86
2023/09/30 01:16:26;;;;;;;15.02;4.82;;;14.90;99.90;;;15.57;67.78;101479.56;4864909;29;20045;-86
2023/09/30 01:18:53;;;;;;;15.35;5.43;;;14.90;99.90;;;15.59;67.88;101469.41;4849431;29;20052;-86
2023/09/30 01:21:24;;;;;;;14.98;4.97;;;14.90;99.90;;;15.62;68.16;101472.50;4849733;29;20097;-86
2023/09/30 01:23:52;;;;;;;13.23;4.57;;;14.90;99.90;;;15.61;68.37;101473.50;4849496;29;20101;-86
2023/09/30 01:26:21;;;;;;;15.45;4.93;;;14.90;99.90;;;15.60;68.42;101471.06;4850766;29;20509;-86
2023/09/30 01:28:50;;;;;;;14.02;4.43;;;14.90;99.90;;;15.58;68.49;101473.16;4846338;29;20057;-86
2023/09/30 01:31:17;;;;;;;17.58;4.78;;;14.90;99.90;;;15.58;68.48;101475.84;4862866;29;20079;-86
2023/09/30 01:33:45;;;;;;;17.67;5.25;;;14.90;99.90;;;15.58;68.31;101489.28;4874485;29;20109;-86
2023/09/30 01:36:13;;;;;;;15.07;4.80;;;14.90;99.90;;;15.57;68.44;101487.63;4864363;29;20049;-86
2023/09/30 01:38:40;;;;;;;11.48;4.10;;;14.90;99.90;;;15.55;68.09;101487.84;4864315;29;20044;-86
2023/09/30 01:41:09;;;;;;;9.63;4.22;;;14.90;99.90;;;15.55;68.00;101495.09;4863653;29;20057;-85
2023/09/30 01:43:37;;;;;;;13.07;4.82;;;14.80;99.90;;;15.53;68.29;101495.31;4866072;29;20093;-86
2023/09/30 01:46:06;;;;;;;15.32;4.68;;;14.80;99.90;;;15.53;68.47;101489.13;4878768;29;20519;-86
2023/09/30 01:48:33;;;;;;;12.63;4.75;;;14.80;99.90;;;15.52;68.56;101493.69;4863506;29;20505;-86
2023/09/30 01:51:00;;;;;;;11.70;4.75;;;14.80;99.90;;;15.53;68.58;101502.56;4863935;29;20069;-86
2023/09/30 01:53:28;;;;;;;11.57;4.32;;;14.80;99.90;;;15.52;68.56;101492.81;4878916;29;20097;-86
2023/09/30 01:55:56;;;;;;;11.77;4.50;;;14.80;99.90;;;15.51;68.75;101496.56;4866114;29;20509;-86
2023/09/30 01:58:25;;;;;;;10.95;4.78;;;14.80;99.90;;;15.52;68.98;101495.50;4848762;29;20056;-86
2023/09/30 02:00:54;;;;;;;12.45;4.50;;;14.80;99.90;;;15.51;68.79;101488.50;4848359;29;20048;-86
2023/09/30 02:03:21;;;;;;;14.40;5.25;;;14.80;99.90;;;15.52;68.84;101509.81;4848354;29;20485;-86
2023/09/30 02:05:49;;;;;;;13.63;4.68;;;14.80;99.90;;;15.51;68.63;101518.06;4864817;29;20089;-86
2023/09/30 02:08:18;;;;;;;14.23;4.80;;;14.80;99.90;;;15.46;68.50;101522.22;4839639;29;20069;-86
2023/09/30 02:10:46;;;;;;;12.82;5.05;;;14.80;99.90;;;15.46;68.68;101530.28;4863483;29;20481;-86
2023/09/30 02:13:13;;;;;;;16.88;4.90;;;14.80;99.90;;;15.46;68.36;101524.91;4829815;29;20156;-86
2023/09/30 02:15:43;;;;;;;13.80;5.30;;;14.80;99.90;;;15.46;68.61;101518.72;4847263;29;20055;-86
2023/09/30 02:18:12;;;;;;;15.52;5.25;;;14.80;99.90;;;15.45;68.61;101515.22;4865084;29;20049;-86
2023/09/30 02:20:41;;;;;;;14.27;5.18;;;14.80;99.90;;;15.43;68.62;101511.94;4861775;29;20041;-86
2023/09/30 02:23:11;;;;;;;14.43;4.97;;;14.70;99.90;;;15.40;68.30;101509.66;4863839;29;20053;-86
2023/09/30 02:25:39;;;;;;;11.82;5.20;;;14.70;99.90;;;15.37;68.21;101507.44;4847545;29;20048;-86
2023/09/30 02:28:07;;;;;;;16.02;5.35;;;14.70;99.90;;;15.35;68.24;101501.44;4846647;29;20491;-86
2023/09/30 02:30:35;;;;;;;12.00;4.75;;;14.60;99.90;;;15.35;68.06;101498.75;4863517;29;20057;-86
2023/09/30 02:33:07;;;;;;;15.30;5.30;;;14.60;99.90;;;15.34;67.88;101497.09;4862070;29;20524;-86
2023/09/30 02:35:34;;;;;;;13.05;4.90;;;14.70;99.90;;;15.31;67.81;101491.34;4830138;29;20046;-86
2023/09/30 02:38:03;;;;;;;9.75;4.22;;;14.60;99.90;;;15.27;67.64;101485.56;4861644;29;20464;-86
2023/09/30 02:40:31;;;;;;;13.55;4.80;;;14.60;99.90;;;15.26;67.56;101491.97;4847915;29;20428;-86
2023/09/30 02:42:58;;;;;;;12.50;5.18;;;14.50;99.90;;;15.25;67.33;101493.03;4863131;29;20046;-86
2023/09/30 02:45:26;;;;;;;12.55;4.95;;;14.50;99.90;;;15.21;67.30;101491.81;4831955;29;20045;-86
2023/09/30 02:47:54;;;;;;;14.65;5.03;;;14.50;99.90;;;15.19;67.35;101493.91;4862991;29;20056;-86
2023/09/30 02:50:23;;;;;;;14.32;4.35;;;14.50;99.90;;;15.17;67.46;101498.66;4846284;29;20523;-86
2023/09/30 02:52:51;;;;;;;14.68;5.18;;;14.50;99.90;;;15.17;67.32;101509.41;4861516;29;20055;-86
2023/09/30 02:55:19;;;;;;;12.10;4.50;;;14.40;99.90;;;15.14;67.17;101510.66;4863082;29;20045;-86
2023/09/30 02:57:47;;;;;;;12.45;4.45;;;14.40;99.90;;;15.10;67.15;101522.88;4862142;29;20076;-86
2023/09/30 03:00:20;;;;;;;11.05;4.20;;;14.40;99.90;;;15.07;67.15;101522.47;4831784;29;20084;-86
2023/09/30 03:02:48;;;;;;;14.77;5.07;;;14.30;99.90;;;15.04;67.22;101513.00;4847994;29;20049;-86
2023/09/30 03:05:15;;;;;;;13.82;4.22;;;14.30;99.90;;;15.08;67.39;101510.69;4879110;29;20068;-86
2023/09/30 03:07:45;;;;;;;13.63;5.00;;;14.30;99.90;;;15.07;67.33;101509.88;4878441;29;20045;-86
2023/09/30 03:10:14;;;;;;;10.82;4.25;;;14.30;99.90;;;15.03;67.62;101514.03;4863015;29;20139;-86
2023/09/30 03:12:42;;;;;;;15.60;5.30;;;14.30;99.90;;;15.01;67.76;101516.09;4846932;29;20045;-87
2023/09/30 03:15:11;;;;;;;10.38;4.10;;;14.30;99.90;;;14.99;67.68;101510.13;4878913;29;20045;-86
2023/09/30 03:17:38;;;;;;;15.32;4.90;;;14.30;99.90;;;15.01;67.79;101512.59;4847359;29;20049;-86
2023/09/30 03:20:11;;;;;;;13.60;4.55;;;14.30;99.90;;;14.99;67.93;101515.50;4878788;29;20084;-85
2023/09/30 03:22:42;;;;;;;12.15;4.63;;;14.30;99.90;;;15.00;67.87;101519.03;4862710;29;20054;-86
2023/09/30 03:25:17;;;;;;;15.57;4.50;;;14.30;99.90;;;15.01;67.96;101515.28;4882220;29;20049;-86
2023/09/30 03:27:46;;;;;;;11.55;4.57;;;14.30;99.90;;;15.00;68.02;101516.34;4862753;29;20391;-86
2023/09/30 03:30:15;;;;;;;11.43;4.88;;;14.30;99.90;;;14.99;68.36;101512.81;4859624;29;20053;-86
2023/09/30 03:32:43;;;;;;;15.00;4.22;;;14.30;99.90;;;14.99;68.33;101509.31;4863149;29;20135;-86
2023/09/30 03:35:16;;;;;;;12.43;4.50;;;14.30;99.90;;;15.00;68.67;101513.66;4878957;29;20569;-86
2023/09/30 03:37:44;;;;;;;13.90;4.80;;;14.30;99.90;;;15.00;68.73;101508.28;4864217;29;20048;-86
2023/09/30 03:40:18;;;;;;;12.02;4.65;;;14.30;99.90;;;15.03;68.89;101502.44;4858992;29;20133;-86
2023/09/30 03:42:49;;;;;;;11.68;4.25;;;14.30;99.90;;;15.02;68.73;101492.75;4844264;29;20450;-86
2023/09/30 03:45:17;;;;;;;14.07;4.53;;;14.30;99.90;;;15.01;68.90;101494.63;4844131;29;20125;-86
2023/09/30 03:47:45;;;;;;;16.65;5.30;;;14.30;99.90;;;15.01;68.88;101494.63;4874961;29;20501;-86
2023/09/30 03:50:14;;;;;;;17.17;4.70;;;14.30;99.90;;;14.98;69.11;101497.72;4879375;29;20053;-86
2023/09/30 03:52:47;;;;;;;14.02;5.20;;;14.30;99.90;;;14.97;69.33;101492.56;4879067;29;20053;-86
2023/09/30 03:55:17;;;;;;;28.80;7.07;;;14.30;99.90;;;14.96;69.95;101488.25;4862661;29;20060;-86
2023/09/30 03:57:47;;;;;;;20.33;6.75;;;14.30;99.90;;;14.93;70.46;101505.59;4854928;29;20053;-86
2023/09/30 04:00:18;;;;;;;13.55;5.70;;;14.30;99.90;;;14.94;70.55;101502.72;4878254;29;20045;-86
2023/09/30 04:02:49;;;;;;;14.77;6.32;;;14.30;99.90;;;14.98;70.17;101499.59;4864066;29;20049;-86
2023/09/30 04:05:18;;;;;;;19.98;7.03;;;14.40;99.90;;;14.97;70.38;101497.94;4865211;29;20060;-86
2023/09/30 04:07:46;;;;;;;18.30;7.53;;;14.30;99.90;;;14.99;70.45;101503.94;4881670;29;20581;-86
2023/09/30 04:10:15;;;;;;;16.63;7.43;;;14.40;99.90;;;14.96;70.40;101505.19;4864895;29;20524;-86
2023/09/30 04:12:42;;;;;;;18.55;7.53;;;14.30;99.90;;;14.98;70.52;101488.84;4834850;29;20473;-86
2023/09/30 04:15:12;;;;;;;29.05;9.18;;;14.40;99.90;;;14.99;70.29;101494.03;4885792;29;20582;-86
2023/09/30 04:17:40;;;;;;;19.75;8.10;;;14.40;99.90;;;14.98;70.60;101496.91;4880373;29;20135;-86
2023/09/30 04:20:15;;;;;;;21.35;7.55;;;14.40;99.90;;;14.98;70.37;101507.66;4865420;29;20132;-86
2023/09/30 04:22:48;;;;;;;19.05;8.02;;;14.40;99.90;;;14.99;70.56;101514.69;4864059;29;20113;-86
2023/09/30 04:25:18;;;;;;;20.83;7.93;;;14.40;99.90;;;14.94;70.90;101502.72;4882068;29;20509;-87
2023/09/30 04:27:48;;;;;;;18.87;8.00;;;14.30;99.90;;;14.94;70.70;101488.47;4850126;29;20473;-86
2023/09/30 04:30:16;;;;;;;20.90;8.65;;;14.40;99.90;;;14.93;70.87;101478.75;4882494;29;20045;-86
2023/09/30 04:32:44;;;;;;;23.63;8.55;;;14.30;99.90;;;14.92;71.00;101485.97;4864733;29;20057;-86
2023/09/30 04:35:12;;;;;;;20.52;8.98;;;14.30;99.90;;;14.90;71.50;101490.75;4864202;29;20056;-86
2023/09/30 04:37:40;;;;;;;20.20;8.80;;;14.30;99.90;;;14.89;71.33;101497.16;4880698;29;20044;-86
2023/09/30 04:40:15;;;;;;;24.40;9.18;;;14.30;99.90;;;14.91;71.35;101505.81;4838900;29;20056;-86
2023/09/30 04:42:46;;;;;;;20.63;8.00;;;14.30;99.90;;;14.92;71.15;101510.16;4850605;29;20080;-86
2023/09/30 04:45:16;;;;;;;25.15;9.70;;;14.40;99.90;;;14.93;71.01;101510.97;4845998;29;20060;-86
2023/09/30 04:47:45;;;;;;;22.40;10.00;;;14.40;99.90;;;14.93;71.16;101516.34;4880124;29;20544;-86
2023/09/30 04:50:16;;;;;;;22.85;9.73;;;14.30;99.90;;;14.93;70.95;101521.72;4864335;29;20136;-86
2023/09/30 04:52:45;;;;;;;20.85;10.13;;;14.40;99.90;;;14.92;71.15;101528.97;4848358;29;20045;-86
2023/09/30 04:55:15;;;;;;;18.08;8.48;;;14.30;99.90;;;14.93;70.68;101529.78;4860737;29;20049;-86
2023/09/30 04:57:45;;;;;;;21.03;9.87;;;14.30;99.90;;;14.93;70.64;101541.38;4867038;29;20105;-86
2023/09/30 05:00:15;;;;;;;22.90;9.55;;;14.30;99.90;;;14.92;70.98;101537.00;4863314;29;20045;-86
2023/09/30 05:02:44;;;;;;;20.48;10.48;;;14.30;99.90;;;14.91;70.94;101537.25;4863882;29;20499;-85
2023/09/30 05:05:15;;;;;;;20.13;9.48;;;14.30;99.90;;;14.91;70.87;101540.75;4866922;29;20132;-86
2023/09/30 05:07:42;;;;;;;19.80;9.93;;;14.30;99.90;;;14.90;70.71;101546.34;4864607;29;20081;-86
2023/09/30 05:10:13;;;;;;;20.83;10.98;;;14.30;99.90;;;14.90;70.63;101543.66;4864233;29;20051;-85
2023/09/30 05:12:45;;;;;;;21.67;9.52;;;14.30;99.90;;;14.89;70.52;101558.94;4879492;29;20045;-86
2023/09/30 05:15:16;;;;;;;18.50;9.60;;;14.30;99.90;;;14.89;70.53;101553.56;4849355;29;20049;-86
2023/09/30 05:17:44;;;;;;;22.65;9.45;;;14.30;99.90;;;14.89;70.28;101558.13;4880991;29;20108;-85
2023/09/30 05:20:12;;;;;;;25.65;10.52;;;14.20;99.90;;;14.86;70.38;101554.00;4863122;29;20041;-86
2023/09/30 05:22:40;;;;;;;19.95;10.15;;;14.20;99.90;;;14.87;70.34;101552.13;4880165;29;20045;-85
2023/09/30 05:25:09;;;;;;;22.75;9.70;;;14.20;99.90;;;14.84;70.15;101550.72;4879325;29;20045;-85
2023/09/30 05:27:37;;;;;;;23.50;11.30;;;14.20;99.90;;;14.83;70.09;101548.22;4883304;29;20045;-85
2023/09/30 05:30:07;;;;;;;23.42;10.27;;;14.20;99.90;;;14.82;70.25;101547.38;4870399;29;20080;-83
2023/09/30 05:32:39;;;;;;;24.80;12.18;;;14.20;99.90;;;14.81;70.31;101550.31;4868417;29;20049;-83
2023/09/30 05:35:12;;;;;;;24.20;11.55;;;14.10;99.90;;;14.79;70.60;101547.00;4868900;29;20520;-84
2023/09/30 05:37:41;;;;;;;27.02;12.10;;;14.20;99.90;;;14.78;70.98;101556.91;4867815;29;20132;-84
2023/09/30 05:40:20;;;;;;;24.83;12.68;;;14.10;99.90;;;14.78;71.05;101553.41;4864467;29;20069;-87
2023/09/30 05:42:48;;;;;;;25.90;13.52;;;14.20;99.90;;;14.78;71.35;101556.09;4863309;29;20120;-87
2023/09/30 05:45:15;;;;;;;25.90;12.55;;;14.20;99.90;;;14.78;71.35;101554.22;4879597;29;20084;-86
2023/09/30 05:47:45;;;;;;;26.45;12.88;;;14.20;99.90;;;14.80;71.22;101554.84;4835191;29;20072;-85
2023/09/30 05:50:16;;;;;;;31.75;13.48;;;14.20;99.90;;;14.80;71.33;101554.84;4854262;29;20076;-86
2023/09/30 05:52:46;;;;;;;29.63;13.18;;;14.20;99.90;;;14.81;71.36;101552.97;4841035;29;20500;-86
2023/09/30 05:55:16;;;;;;;30.38;13.68;;;14.20;99.90;;;14.82;71.57;101554.63;4863244;29;20101;-87
2023/09/30 05:57:43;;;;;;;27.50;13.27;;;14.20;99.90;;;14.82;71.64;101551.94;4877675;29;20052;-85
2023/09/30 06:00:20;;;;;;;32.60;13.35;;;14.20;99.90;;;14.82;71.80;101551.94;4858439;29;20443;-85
2023/09/30 06:02:51;;;;;;;27.08;13.45;;;14.30;99.90;;;14.81;71.92;101544.94;4827897;29;20057;-86
2023/09/30 06:05:19;;;;;;;22.15;12.18;;;14.30;99.90;;;14.83;71.89;101551.72;4878697;29;20137;-85
2023/09/30 06:07:48;;;;;;;26.70;12.00;;;14.30;99.90;;;14.86;71.79;101558.53;4848321;29;20051;-85
2023/09/30 06:10:18;;;;;;;27.23;11.73;;;14.30;99.90;;;14.86;71.82;101548.63;4880276;29;20057;-85
2023/09/30 06:12:47;;;;;;;28.00;12.03;;;14.30;99.90;;;14.86;71.96;101551.31;4862591;29;20060;-86
2023/09/30 06:15:15;;;;;;;25.92;12.30;;;14.30;99.90;;;14.88;71.93;101551.09;4845536;29;20052;-86
2023/09/30 06:17:43;;;;;;;22.90;11.50;;;14.40;99.90;;;14.88;72.20;101562.69;4877260;29;20093;-86
2023/09/30 06:20:17;;;;;;;28.23;12.15;;;14.30;99.90;;;14.89;72.22;101564.31;4883849;29;20048;-85
2023/09/30 06:22:47;;;;;;;27.77;11.68;;;14.40;99.90;;;14.91;72.34;101567.59;4868757;29;20048;-84
2023/09/30 06:25:16;;;;;;;22.73;10.32;;;14.40;99.90;;;14.92;72.35;101566.56;4881999;29;20523;-90
2023/09/30 06:27:44;;;;;;;22.48;10.27;;;14.40;99.90;;;14.93;72.60;101562.88;4865154;29;20053;-85
2023/09/30 06:30:13;;;;;;;33.92;11.93;;;14.40;99.90;;;14.96;72.96;101571.53;4869089;29;20466;-85
2023/09/30 06:32:41;;;;;;;23.77;11.02;;;14.40;99.90;;;14.98;73.09;101572.94;4878313;29;20053;-84
2023/09/30 06:35:11;;;;;;;24.30;10.90;;;14.50;99.90;;;15.01;73.04;101566.34;4853835;29;20121;-85
2023/09/30 06:37:41;;;;;;;25.30;10.88;;;14.50;99.90;;;15.04;73.29;101565.91;4863631;29;20084;-85
2023/09/30 06:40:12;;;;;;;23.57;11.07;;;14.60;99.90;;;15.07;73.36;101560.09;4881915;29;20049;-85
2023/09/30 06:42:40;;;;;;;20.55;10.00;;;14.60;99.90;;;15.08;73.69;101564.44;4864786;29;20060;-85
2023/09/30 06:45:10;;;;;;;23.10;11.30;;;14.70;99.90;;;15.11;73.74;101570.19;4864705;29;20052;-85
2023/09/30 06:47:38;;;;;;;26.27;10.02;;;14.70;99.90;;;15.14;73.94;101566.28;4873622;29;20056;-85
2023/09/30 06:50:12;;;;;;;24.27;10.30;;;14.70;99.90;;;15.15;74.41;101576.81;4882167;29;20056;-85
2023/09/30 06:52:42;;;;;;;30.45;12.07;;;14.80;99.90;;;15.16;74.23;101569.56;4865745;29;20057;-85
2023/09/30 06:55:13;;;;;;;23.92;10.18;;;14.80;99.90;;;15.13;74.77;101572.69;4845991;29;20045;-85
2023/09/30 06:57:41;;;;;;;28.77;11.30;;;14.80;99.90;;;15.17;74.80;101576.59;4853871;29;20060;-84
2023/09/30 07:00:11;;;;;;;24.92;10.40;;;14.80;99.90;;;15.07;75.63;101578.91;4849068;29;20148;-85
2023/09/30 07:02:40;;;;;;;25.70;11.10;;;14.80;99.90;;;15.10;75.63;101576.63;4863292;29;20053;-84
2023/09/30 07:05:09;;;;;;;26.58;11.40;;;14.90;99.90;;;15.10;76.07;101573.13;4879309;29;20093;-85
2023/09/30 07:07:36;;;;;;;25.08;11.60;;;14.90;99.90;;;15.02;76.58;101584.09;4880379;29;20105;-85
2023/09/30 07:10:07;;;;;;;28.30;10.52;;;14.90;99.90;;;15.01;77.34;101582.44;4880778;29;20493;-85
2023/09/30 07:12:37;;;;;;;24.92;10.77;;;14.90;99.90;;;15.12;76.95;101589.84;4879338;29;20521;-90
2023/09/30 07:15:06;;;;;;;28.55;10.05;;;14.90;99.90;;;15.16;76.96;101601.81;4862235;29;20053;-84
2023/09/30 07:17:34;;;;;;;26.45;10.35;;;15.00;99.90;;;15.16;77.25;101599.94;4879759;29;20140;-84
2023/09/30 07:20:02;;;;;;;27.30;10.70;;;15.00;99.90;;;15.18;77.71;101595.19;4862670;29;20060;-84
2023/09/30 07:22:30;;;;;;;21.10;10.20;;;15.00;99.90;;;15.27;77.45;101597.63;4879124;29;20055;-83
2023/09/30 07:24:58;;;;;;;26.75;11.23;;;15.10;99.90;;;15.29;77.31;101606.31;4879667;29;20505;-85
2023/09/30 07:27:27;;;;;;;29.95;11.18;;;15.10;99.90;;;15.29;77.67;101609.81;4878790;29;20045;-84
2023/09/30 07:29:54;;;;;;;23.55;10.40;;;15.20;99.90;;;15.40;77.27;101616.38;4844950;29;20053;-85
2023/09/30 07:32:23;;;;;;;24.60;10.73;;;15.20;99.90;;;15.51;77.08;101625.63;4855299;29;20101;-85
2023/09/30 07:34:51;;;;;;;27.10;11.65;;;15.30;99.90;;;15.55;76.61;101641.09;4857227;29;20084;-83
2023/09/30 07:37:20;;;;;;;24.42;10.40;;;15.40;99.90;;;15.62;76.84;101649.16;4866765;29;20071;-84
2023/09/30 07:39:48;;;;;;;23.70;10.85;;;15.50;99.90;;;15.60;76.46;101645.84;4899292;29;20044;-83
2023/09/30 07:42:16;;;;;;;24.80;10.18;;;15.50;99.90;;;15.69;76.45;101645.41;4889697;29;20493;-84
2023/09/30 07:44:45;;;;;;;24.20;11.30;;;15.50;99.90;;;15.72;76.37;101652.22;4886456;29;20049;-84
2023/09/30 07:47:14;;;;;;;27.50;11.57;;;15.60;99.90;;;15.73;76.93;101661.94;4889315;29;20051;-83
2023/09/30 07:49:42;;;;;;;27.30;11.82;;;15.70;99.90;;;15.76;76.98;101657.97;4859992;29;20049;-83
2023/09/30 07:52:10;;;;;;;26.77;10.93;;;15.70;99.90;;;15.81;77.19;101667.06;4858942;29;20434;-83
2023/09/30 07:54:43;;;;;;;29.95;11.57;;;15.70;99.90;;;15.83;77.59;101662.28;4885573;29;20427;-87
2023/09/30 07:57:11;;;;;;;25.88;10.95;;;15.80;99.90;;;15.87;77.49;101666.22;4902012;29;20048;-88
2023/09/30 07:59:39;;;;;;;23.73;10.70;;;15.90;99.90;;;15.90;77.45;101663.06;4891829;29;20049;-83
2023/09/30 08:02:08;;;;;;;27.40;11.57;;;15.90;99.90;;;15.92;77.54;101663.69;4884406;29;20053;-84
2023/09/30 08:04:36;;;;;;;26.70;12.30;;;16.00;99.90;;;15.99;78.15;101655.56;4882712;29;20136;-83
2023/09/30 08:07:09;;;;;;;29.27;11.80;;;16.00;99.90;;;16.04;78.01;101660.28;4883209;29;20033;-83
2023/09/30 08:09:46;;;;;;;29.52;11.93;;;16.10;99.90;;;16.04;78.27;101668.38;4863099;29;20129;-83
2023/09/30 08:12:13;;;;;;;25.88;10.02;;;16.10;99.90;;;16.02;77.66;101665.09;4856274;29;20045;-83
2023/09/30 08:14:44;;;;;;;25.15;10.88;;;16.10;99.90;;;16.04;77.91;101663.81;4866252;29;20521;-87
2023/09/30 08:17:13;;;;;;;27.55;10.23;;;16.10;99.90;;;16.12;78.47;101671.63;4865703;29;20064;-88
2023/09/30 08:19:42;;;;;;;31.17;11.18;;;16.20;99.90;;;16.17;78.62;101669.09;4879963;29;20062;-87
2023/09/30 08:22:10;;;;;;;25.65;9.93;;;16.20;99.90;;;16.19;78.31;101674.25;4865617;29;20053;-86
2023/09/30 08:24:37;;;;;;;21.92;9.35;;;16.20;99.90;;;16.22;77.83;101681.91;4880993;29;20045;-86
2023/09/30 08:27:06;;;;;;;26.52;10.05;;;16.30;99.90;;;16.31;78.25;101675.22;4862101;29;20147;-86
2023/09/30 08:29:36;;;;;;;22.25;9.75;;;16.40;99.90;;;16.33;77.90;101689.25;4856860;29;20053;-83
2023/09/30 08:32:04;;;;;;;23.92;9.95;;;16.50;99.90;;;16.39;79.23;101691.06;4863132;29;20057;-84
2023/09/30 08:34:33;;;;;;;24.23;10.23;;;16.50;99.90;;;16.44;78.36;101691.22;4863952;29;20485;-85
2023/09/30 08:37:00;;;;;;;19.42;9.38;;;16.60;99.90;;;16.49;77.81;101690.56;4882521;29;20097;-84
2023/09/30 08:39:29;;;;;;;25.25;9.52;;;16.60;99.90;;;16.57;78.33;101689.47;4894499;29;20520;-84
2023/09/30 08:41:57;;;;;;;23.75;10.68;;;16.70;99.90;;;16.62;79.15;101692.34;4880801;29;20497;-85
2023/09/30 08:44:26;;;;;;;30.77;10.60;;;16.80;99.90;;;16.64;77.53;101687.53;4820408;29;20504;-83
2023/09/30 08:46:55;;;;;;;21.35;10.00;;;16.70;99.90;;;16.60;76.94;101684.50;4884066;29;20069;-83
2023/09/30 08:49:26;;;;;;;25.50;10.50;;;16.70;99.90;;;16.55;76.44;101686.19;4866142;29;20401;-84
2023/09/30 08:52:00;;;;;;;24.00;11.18;;;16.60;99.90;;;16.48;76.46;101683.53;4867112;29;20132;-85
2023/09/30 08:54:27;;;;;;;25.42;11.25;;;16.50;99.90;;;16.41;76.32;101677.41;4883765;29;20056;-85
2023/09/30 08:56:55;;;;;;;22.20;11.38;;;16.50;99.90;;;16.42;76.84;101670.97;4883881;29;20132;-85
2023/09/30 08:59:24;;;;;;;25.92;11.48;;;16.50;99.90;;;16.46;77.43;101670.31;4874019;29;20051;-85
2023/09/30 09:01:53;;;;;;;22.42;10.38;;;16.50;99.90;;;16.50;76.48;101673.41;4854498;29;20053;-85
2023/09/30 09:04:20;;;;;;;21.13;10.10;;;16.60;99.90;;;16.61;77.25;101669.97;4855821;29;20045;-84
2023/09/30 09:06:48;;;;;;;21.85;9.98;;;16.70;99.90;;;16.66;75.95;101662.03;4882843;29;20117;-85
2023/09/30 09:09:19;;;;;;;23.63;9.40;;;16.80;99.90;;;16.72;76.39;101660.34;4864058;29;20477;-85
2023/09/30 09:11:47;;;;;;;22.83;10.15;;;16.80;99.90;;;16.81;77.34;101658.19;4825413;29;20057;-85
2023/09/30 09:14:15;;;;;;;28.25;11.48;;;16.90;99.90;;;16.85;76.91;101659.41;4875480;29;20405;-85
2023/09/30 09:16:57;;;;;;;21.95;10.73;;;17.00;99.90;;;16.87;76.01;101660.81;4839757;29;20052;-85
2023/09/30 09:19:24;;;;;;;21.33;9.68;;;17.00;99.90;;;16.87;74.83;101660.81;4876307;29;20100;-85
2023/09/30 09:21:57;;;;;;;22.50;10.43;;;17.00;99.90;;;16.91;74.72;101653.94;4847448;29;20041;-85
2023/09/30 09:24:38;;;;;;;21.73;9.70;;;17.10;99.90;;;16.90;74.29;101655.00;4866693;29;20428;-85
2023/09/30 09:27:08;;;;;;;21.38;8.98;;;17.00;99.90;;;16.89;74.17;101655.22;4861975;29;20520;-85
2023/09/30 09:29:37;;;;;;;20.77;8.50;;;17.00;99.90;;;16.84;73.04;101663.97;4869380;29;20049;-87
2023/09/30 09:32:10;;;;;;;23.77;8.82;;;17.00;99.90;;;16.87;73.56;101658.13;4863649;29;20087;-85
2023/09/30 09:34:37;;;;;;;18.52;8.60;;;17.00;99.90;;;16.92;74.21;101655.56;4873119;29;20060;-86
2023/09/30 09:37:16;;;;;;;19.67;8.32;;;17.00;99.90;;;17.01;74.36;101658.00;4862230;29;20051;-86
2023/09/30 09:39:57;;;;;;;21.20;7.38;;;17.10;99.90;;;17.07;72.29;101652.50;4860366;29;20075;-86
2023/09/30 09:42:31;;;;;;;22.00;8.80;;;17.20;99.90;;;17.10;72.24;101652.06;4887928;29;20049;-86
2023/09/30 09:44:59;;;;;;;18.52;8.18;;;17.30;99.90;;;17.17;72.57;101647.41;4880278;29;20053;-86
2023/09/30 09:47:28;;;;;;;15.23;7.03;;;17.30;99.90;;;17.24;72.27;101647.34;4879898;29;20474;-86
2023/09/30 09:49:59;;;;;;;15.40;6.70;;;17.40;99.90;;;17.28;72.48;101648.53;4889604;29;20044;-86
2023/09/30 09:52:32;;;;;;;22.45;7.70;;;17.40;99.90;;;17.24;70.42;101653.56;4848837;29;20049;-86
2023/09/30 09:55:03;;;;;;;14.88;6.18;;;17.40;99.90;;;17.23;71.00;101643.00;4837305;29;20101;-86
2023/09/30 09:57:33;;;;;;;14.90;5.55;;;17.40;99.90;;;17.21;69.54;101653.19;4846095;29;20053;-86
2023/09/30 10:00:05;;;;;;;12.45;4.40;;;17.30;99.90;;;17.17;67.90;101646.59;4890965;29;20139;-86
2023/09/30 10:02:33;;;;;;;12.95;4.72;;;17.30;99.90;;;17.18;68.16;101650.97;4898073;29;20500;-86
2023/09/30 10:05:03;;;;;;;11.75;4.78;;;17.30;99.90;;;17.27;69.63;101654.97;4848527;29;20101;-86
2023/09/30 10:07:36;;;;;;;13.68;5.00;;;17.40;99.90;;;17.33;68.75;101651.38;4841728;29;20200;-86
2023/09/30 10:10:13;;;;;;;14.80;4.90;;;17.50;99.90;;;17.37;67.69;101657.13;4880841;29;20096;-87
2023/09/30 10:12:41;;;;;;;10.65;4.25;;;17.60;99.90;;;17.37;66.39;101668.75;4840548;29;20053;-86